This is the latest recevied weather packets stored in our database for station/object PY2UEP-1. If no packets are shown the sender has not sent any weather packets the latest 10 day(s).
| Time | Temp. | Humidity | Pressure | Rain* | Wind** | Luminosity | Snow |
|---|---|---|---|---|---|---|---|
| 1787666406 | 20.56° C | 66% | 1020.5 hPa | 0 mm | - | - | - |
| 1787666106 | 20.56° C | 66% | 1020.3 hPa | 0 mm | - | - | - |
| 1787665806 | 20.56° C | 66% | 1020.5 hPa | 0 mm | - | - | - |
| 1787665506 | 21.11° C | 64% | 1020.6 hPa | 0 mm | - | - | - |
| 1787665206 | 20.56° C | 66% | 1020.6 hPa | 0 mm | - | - | - |
| 1787664906 | 20.56° C | 65% | 1020.8 hPa | 0 mm | - | - | - |
| 1787664606 | 20.56° C | 65% | 1020.8 hPa | 0 mm | - | - | - |
| 1787664306 | 20.56° C | 65% | 1021 hPa | 0 mm | - | - | - |
| 1787664006 | 20° C | 68% | 1021 hPa | 0 mm | - | - | - |
| 1787663706 | 19.44° C | 70% | 1020.9 hPa | 0 mm | - | - | - |
| 1787663406 | 19.44° C | 70% | 1020.5 hPa | 0 mm | - | - | - |
| 1787663106 | 19.44° C | 70% | 1020.6 hPa | 0 mm | - | - | - |
| 1787662806 | 20° C | 68% | 1020.6 hPa | 0 mm | - | - | - |
| 1787662506 | 19.44° C | 69% | 1020.4 hPa | 0 mm | - | - | - |
| 1787662206 | 19.44° C | 69% | 1020.4 hPa | 0 mm | - | - | - |
| 1787661906 | 18.89° C | 71% | 1020.5 hPa | 0 mm | - | - | - |
| 1787661606 | 18.89° C | 71% | 1020.6 hPa | 0 mm | - | - | - |
| 1787661306 | 18.33° C | 72% | 1020.7 hPa | 0 mm | - | - | - |
| 1787661006 | 18.33° C | 72% | 1020.8 hPa | 0 mm | - | - | - |
| 1787660706 | 17.78° C | 73% | 1021 hPa | 0 mm | - | - | - |
| 1787660406 | 17.78° C | 76% | 1021 hPa | 0 mm | - | - | - |
| 1787660106 | 17.22° C | 77% | 1020.8 hPa | 0 mm | - | - | - |
| 1787659806 | 16.67° C | 78% | 1021.1 hPa | 0 mm | - | - | - |
| 1787659506 | 16.67° C | 78% | 1021 hPa | 0 mm | - | - | - |
| 1787659206 | 16.11° C | 80% | 1020.9 hPa | 0 mm | - | - | - |
* Rain since midnight (hover to see other rain measurements)
** Current wind speed in m/s (hover to see current wind gust speed)